createdAt,value
2018-08-06T00:00:03.139Z,2.40
2018-08-06T00:02:31.389Z,2.00
2018-08-06T00:04:59.708Z,2.20
2018-08-06T00:07:28.058Z,2.30
2018-08-06T00:09:58.276Z,1.90
2018-08-06T00:12:26.583Z,2.33
2018-08-06T00:14:54.863Z,2.23
2018-08-06T00:17:23.253Z,2.20
2018-08-06T00:19:51.512Z,2.00
2018-08-06T00:22:19.904Z,2.10
2018-08-06T00:24:48.166Z,2.40
2018-08-06T00:27:16.442Z,2.07
2018-08-06T00:29:44.705Z,2.23
2018-08-06T00:32:12.976Z,2.53
2018-08-06T00:34:41.247Z,2.47
2018-08-06T00:37:09.525Z,2.67
2018-08-06T00:39:37.805Z,1.87
2018-08-06T00:42:06.080Z,2.60
2018-08-06T00:44:35.417Z,2.70
2018-08-06T00:47:03.688Z,2.73
2018-08-06T00:49:31.961Z,2.27
2018-08-06T00:52:00.229Z,2.73
2018-08-06T00:54:28.509Z,2.00
2018-08-06T00:56:56.781Z,2.50
2018-08-06T00:59:25.053Z,2.50
2018-08-06T01:01:53.591Z,2.33
2018-08-06T01:04:21.904Z,2.70
2018-08-06T01:06:50.190Z,2.33
2018-08-06T01:09:18.471Z,2.20
2018-08-06T01:11:46.746Z,2.63
2018-08-06T01:14:15.161Z,2.90
2018-08-06T01:16:43.664Z,2.60
2018-08-06T01:19:13.993Z,3.20
2018-08-06T01:21:42.262Z,2.60
2018-08-06T01:24:10.552Z,2.80
2018-08-06T01:26:39.109Z,2.50
2018-08-06T01:29:07.369Z,3.10
2018-08-06T01:31:35.769Z,2.10
2018-08-06T01:34:04.061Z,2.27
2018-08-06T01:36:32.333Z,2.93
2018-08-06T01:39:00.617Z,2.90
2018-08-06T01:41:28.929Z,2.23
2018-08-06T01:43:57.201Z,3.10
2018-08-06T01:46:25.485Z,3.37
2018-08-06T01:48:53.757Z,2.43
2018-08-06T01:51:22.021Z,2.37
2018-08-06T01:53:50.315Z,3.00
2018-08-06T01:56:18.594Z,3.23
2018-08-06T01:58:46.854Z,2.37
2018-08-06T02:01:15.121Z,2.40
2018-08-06T02:03:43.385Z,2.77
2018-08-06T02:06:11.665Z,2.73
2018-08-06T02:08:39.967Z,3.07
2018-08-06T02:11:09.792Z,2.40
2018-08-06T02:13:38.057Z,2.73
2018-08-06T02:16:06.449Z,3.00
2018-08-06T02:18:34.748Z,2.63
2018-08-06T02:21:03.057Z,2.80
2018-08-06T02:23:31.383Z,3.07
2018-08-06T02:25:59.661Z,2.80
2018-08-06T02:28:27.964Z,2.70
2018-08-06T02:30:56.302Z,2.83
2018-08-06T02:33:24.629Z,3.27
2018-08-06T02:35:53.037Z,2.70
2018-08-06T02:38:21.541Z,3.43
2018-08-06T02:40:49.853Z,3.23
2018-08-06T02:43:18.105Z,2.90
2018-08-06T02:45:46.479Z,2.60
2018-08-06T02:48:14.758Z,3.20
2018-08-06T02:50:43.042Z,2.77
2018-08-06T02:53:11.332Z,3.30
2018-08-06T02:55:39.605Z,2.77
2018-08-06T02:58:07.865Z,2.80
2018-08-06T03:00:36.173Z,2.80
2018-08-06T03:03:04.477Z,2.17
2018-08-06T03:05:32.764Z,2.80
2018-08-06T03:08:01.021Z,2.90
2018-08-06T03:10:29.326Z,3.20
2018-08-06T03:12:57.612Z,2.63
2018-08-06T03:15:25.888Z,2.80
2018-08-06T03:17:54.142Z,3.77
2018-08-06T03:20:22.429Z,3.10
2018-08-06T03:22:51.289Z,3.40
2018-08-06T03:25:19.556Z,3.73
2018-08-06T03:27:47.849Z,4.37
2018-08-06T03:30:17.423Z,3.83
2018-08-06T03:32:47.013Z,3.27
2018-08-06T03:35:16.340Z,3.63
2018-08-06T03:37:44.628Z,2.93
2018-08-06T03:40:12.977Z,3.77
2018-08-06T03:42:41.352Z,3.20
2018-08-06T03:45:11.368Z,4.37
2018-08-06T03:47:40.452Z,3.30
2018-08-06T03:50:09.941Z,3.63
2018-08-06T03:52:38.199Z,3.50
2018-08-06T03:55:07.549Z,2.93
2018-08-06T03:57:35.781Z,4.57
2018-08-06T04:00:05.447Z,3.80
2018-08-06T04:02:33.722Z,3.30
2018-08-06T04:05:02.007Z,4.00
2018-08-06T04:07:30.250Z,3.57
2018-08-06T04:09:58.528Z,3.73
2018-08-06T04:12:26.781Z,3.80
2018-08-06T04:14:55.058Z,3.63
2018-08-06T04:17:23.320Z,3.60
2018-08-06T04:19:51.573Z,3.90
2018-08-06T04:22:19.855Z,4.20
2018-08-06T04:24:48.145Z,3.90
2018-08-06T04:27:16.400Z,4.30
2018-08-06T04:29:44.640Z,3.93
2018-08-06T04:32:12.923Z,3.90
2018-08-06T04:34:41.216Z,3.50
2018-08-06T04:37:09.448Z,4.33
2018-08-06T04:39:37.685Z,4.30
2018-08-06T04:42:06.201Z,4.67
2018-08-06T04:44:34.645Z,3.77
2018-08-06T04:47:02.905Z,3.70
2018-08-06T04:49:31.228Z,4.10
2018-08-06T04:51:59.493Z,4.17
2018-08-06T04:54:27.756Z,3.80
2018-08-06T04:56:56.033Z,4.03
2018-08-06T04:59:24.280Z,4.47
2018-08-06T05:01:52.552Z,6.37
2018-08-06T05:04:20.840Z,13.00
2018-08-06T05:06:49.116Z,5.77
2018-08-06T05:09:23.905Z,5.67
2018-08-06T05:11:52.180Z,4.83
2018-08-06T05:14:21.501Z,4.20
2018-08-06T05:16:49.858Z,4.40
2018-08-06T05:19:18.204Z,4.43
2018-08-06T05:21:46.477Z,7.80
2018-08-06T05:24:14.754Z,6.20
2018-08-06T05:26:43.017Z,4.97
2018-08-06T05:29:11.293Z,4.57
2018-08-06T05:31:39.589Z,3.73
2018-08-06T05:34:08.057Z,4.00
2018-08-06T05:36:36.353Z,3.67
2018-08-06T05:39:07.589Z,3.50
2018-08-06T05:41:36.060Z,3.70
2018-08-06T05:44:05.192Z,3.60
2018-08-06T05:46:33.488Z,3.80
2018-08-06T05:49:01.742Z,3.13
2018-08-06T05:51:30.005Z,3.50
2018-08-06T05:53:58.285Z,2.40
2018-08-06T05:56:26.613Z,2.13
2018-08-06T05:58:54.869Z,1.93
2018-08-06T06:01:23.133Z,2.77
2018-08-06T06:03:51.413Z,2.10
2018-08-06T06:06:19.689Z,2.50
2018-08-06T06:08:47.950Z,2.10
2018-08-06T06:11:16.377Z,1.97
2018-08-06T06:13:44.716Z,2.50
2018-08-06T06:16:13.064Z,2.33
2018-08-06T06:18:41.341Z,2.10
2018-08-06T06:21:09.625Z,1.87
2018-08-06T06:23:38.209Z,2.10
2018-08-06T06:26:06.533Z,2.30
2018-08-06T06:28:34.859Z,2.00
2018-08-06T06:31:03.348Z,2.83
2018-08-06T06:33:31.629Z,2.07
2018-08-06T06:35:59.881Z,2.20
2018-08-06T06:38:28.166Z,3.17
2018-08-06T06:40:56.452Z,1.97
2018-08-06T06:43:25.157Z,2.50
2018-08-06T06:45:53.436Z,2.20
2018-08-06T06:48:21.691Z,1.47
2018-08-06T06:50:49.958Z,2.00
2018-08-06T06:53:18.245Z,2.00
2018-08-06T06:55:46.494Z,1.90
2018-08-06T06:58:14.793Z,1.93
2018-08-06T07:00:43.241Z,2.40
2018-08-06T07:03:11.516Z,1.97
2018-08-06T07:05:39.765Z,1.73
2018-08-06T07:08:08.296Z,2.00
2018-08-06T07:10:36.681Z,2.17
2018-08-06T07:13:05.037Z,2.20
2018-08-06T07:15:33.361Z,2.00
2018-08-06T07:18:01.641Z,2.17
2018-08-06T07:20:29.953Z,1.90
2018-08-06T07:22:58.206Z,1.90
2018-08-06T07:25:26.502Z,1.67
2018-08-06T07:27:54.813Z,1.60
2018-08-06T07:30:23.077Z,2.03
2018-08-06T07:32:51.356Z,1.93
2018-08-06T07:35:19.689Z,1.63
2018-08-06T07:37:49.014Z,1.77
2018-08-06T07:40:17.286Z,1.90
2018-08-06T07:42:45.569Z,3.33
2018-08-06T07:45:17.225Z,2.40
2018-08-06T07:47:45.969Z,1.73
2018-08-06T07:50:16.105Z,3.13
2018-08-06T07:52:44.372Z,1.87
2018-08-06T07:55:12.657Z,1.80
2018-08-06T07:57:41.110Z,1.87
2018-08-06T08:00:12.792Z,1.70
2018-08-06T08:02:41.465Z,2.03
2018-08-06T08:05:11.904Z,2.60
2018-08-06T08:07:40.582Z,2.03
2018-08-06T08:10:11.696Z,2.40
2018-08-06T08:12:40.085Z,2.50
2018-08-06T08:15:14.540Z,2.20
2018-08-06T08:17:43.700Z,2.50
2018-08-06T08:20:13.878Z,1.70
2018-08-06T08:22:42.497Z,2.33
2018-08-06T08:25:14.376Z,2.45
2018-08-06T08:27:42.644Z,1.90
2018-08-06T08:30:12.516Z,2.80
2018-08-06T08:32:40.818Z,2.10
2018-08-06T08:35:09.600Z,2.30
2018-08-06T08:37:37.949Z,1.83
2018-08-06T08:40:08.449Z,2.33
2018-08-06T08:42:36.759Z,1.90
2018-08-06T08:45:06.872Z,2.00
2018-08-06T08:47:35.173Z,2.23
2018-08-06T08:50:03.488Z,2.60
2018-08-06T08:52:31.923Z,2.30
2018-08-06T08:55:00.209Z,1.93
2018-08-06T08:57:28.544Z,2.00
2018-08-06T08:59:56.796Z,2.57
2018-08-06T09:02:25.065Z,2.70
2018-08-06T09:04:53.449Z,1.70
2018-08-06T09:07:21.786Z,2.10
2018-08-06T09:09:49.965Z,2.07
2018-08-06T09:12:18.340Z,1.40
2018-08-06T09:14:46.699Z,2.00
2018-08-06T09:17:15.254Z,2.33
2018-08-06T09:19:43.533Z,2.07
2018-08-06T09:22:11.857Z,1.57
2018-08-06T09:24:40.098Z,2.70
2018-08-06T09:27:08.357Z,2.97
2018-08-06T09:29:36.665Z,2.57
2018-08-06T09:32:04.928Z,1.90
2018-08-06T09:34:33.215Z,2.20
2018-08-06T09:37:01.482Z,2.10
2018-08-06T09:39:29.801Z,1.90
2018-08-06T09:41:58.049Z,1.77
2018-08-06T09:44:26.385Z,2.33
2018-08-06T09:46:54.704Z,1.93
2018-08-06T09:49:23.040Z,2.50
2018-08-06T09:51:51.359Z,2.60
2018-08-06T09:54:19.644Z,2.53
2018-08-06T09:56:47.897Z,1.60
2018-08-06T09:59:16.202Z,1.93
2018-08-06T10:01:49.628Z,2.13
2018-08-06T10:04:17.916Z,1.80
2018-08-06T10:06:46.365Z,2.23
2018-08-06T10:09:14.465Z,2.47
2018-08-06T10:11:42.748Z,1.73
2018-08-06T10:14:11.041Z,2.23
2018-08-06T10:16:39.345Z,2.50
2018-08-06T10:19:07.719Z,2.40
2018-08-06T10:21:36.261Z,1.90
2018-08-06T10:24:04.673Z,2.23
2018-08-06T10:26:32.993Z,2.00
2018-08-06T10:29:01.233Z,2.70
2018-08-06T10:31:29.507Z,2.20
2018-08-06T10:33:57.789Z,2.47
2018-08-06T10:36:26.329Z,2.80
2018-08-06T10:38:54.784Z,2.70
2018-08-06T10:41:23.061Z,2.50
2018-08-06T10:43:51.297Z,2.30
2018-08-06T10:46:19.578Z,2.40
2018-08-06T10:48:47.809Z,2.47
2018-08-06T10:51:16.094Z,2.40
2018-08-06T10:53:44.357Z,2.50
2018-08-06T10:56:12.705Z,3.43
2018-08-06T10:58:40.965Z,2.30
2018-08-06T11:01:09.253Z,2.50
2018-08-06T11:03:37.488Z,2.67
2018-08-06T11:06:05.908Z,2.13
2018-08-06T11:08:34.145Z,2.73
2018-08-06T11:11:02.380Z,2.53
2018-08-06T11:13:30.657Z,2.23
2018-08-06T11:15:58.901Z,2.17
2018-08-06T11:18:27.196Z,1.70
2018-08-06T11:20:55.462Z,1.90
2018-08-06T11:23:23.721Z,2.00
2018-08-06T11:25:51.968Z,2.23
2018-08-06T11:28:20.287Z,2.40
2018-08-06T11:30:48.530Z,2.10
2018-08-06T11:33:16.805Z,2.33
2018-08-06T11:35:45.072Z,3.13
2018-08-06T11:38:13.381Z,2.57
2018-08-06T11:40:41.686Z,2.60
2018-08-06T11:43:10.877Z,2.40
2018-08-06T11:45:39.145Z,1.73
2018-08-06T11:48:07.436Z,2.00
2018-08-06T11:50:35.689Z,2.10
2018-08-06T11:53:03.988Z,3.47
2018-08-06T11:55:32.245Z,3.27
2018-08-06T11:58:00.528Z,2.50
2018-08-06T12:00:28.852Z,2.70
2018-08-06T12:02:57.228Z,2.00
2018-08-06T12:05:25.512Z,2.30
2018-08-06T12:07:53.776Z,2.40
2018-08-06T12:10:22.093Z,2.10
2018-08-06T12:12:50.720Z,2.80
2018-08-06T12:15:19.045Z,2.50
2018-08-06T12:17:47.259Z,2.90
2018-08-06T12:20:18.064Z,2.53
2018-08-06T12:22:47.513Z,2.00
2018-08-06T12:25:16.648Z,2.50
2018-08-06T12:27:45.612Z,2.30
2018-08-06T12:30:16.256Z,1.77
2018-08-06T12:32:45.232Z,1.60
2018-08-06T12:35:14.045Z,2.03
2018-08-06T12:37:42.381Z,1.70
2018-08-06T12:40:13.255Z,2.10
2018-08-06T12:42:41.808Z,1.73
2018-08-06T12:45:11.686Z,1.90
2018-08-06T12:47:40.404Z,2.60
2018-08-06T12:50:10.052Z,2.10
2018-08-06T12:52:39.208Z,1.50
2018-08-06T12:55:08.837Z,2.27
2018-08-06T12:57:37.613Z,1.57
2018-08-06T13:00:11.361Z,1.80
2018-08-06T13:02:39.656Z,1.93
2018-08-06T13:05:07.947Z,1.97
2018-08-06T13:07:36.229Z,1.57
2018-08-06T13:10:04.790Z,1.87
2018-08-06T13:12:33.436Z,2.20
2018-08-06T13:15:01.695Z,1.80
2018-08-06T13:17:29.991Z,1.53
2018-08-06T13:19:58.305Z,1.40
2018-08-06T13:22:26.649Z,1.60
2018-08-06T13:24:55.287Z,1.63
2018-08-06T13:27:23.613Z,1.80
2018-08-06T13:29:51.853Z,2.30
2018-08-06T13:32:20.133Z,1.80
2018-08-06T13:34:48.384Z,1.30
2018-08-06T13:37:16.772Z,1.80
2018-08-06T13:39:45.099Z,1.77
2018-08-06T13:42:13.421Z,1.67
2018-08-06T13:44:42.191Z,2.00
2018-08-06T13:47:10.511Z,2.03
2018-08-06T13:49:38.784Z,1.67
2018-08-06T13:52:07.326Z,1.43
2018-08-06T13:54:35.597Z,1.53
2018-08-06T13:57:03.902Z,1.80
2018-08-06T13:59:32.344Z,1.40
2018-08-06T14:02:00.508Z,1.70
2018-08-06T14:04:28.805Z,1.90
2018-08-06T14:06:57.075Z,1.80
2018-08-06T14:09:25.429Z,1.97
2018-08-06T14:11:53.686Z,1.47
2018-08-06T14:14:21.981Z,2.00
2018-08-06T14:16:50.313Z,1.47
2018-08-06T14:19:18.580Z,1.70
2018-08-06T14:21:46.849Z,1.87
2018-08-06T14:24:15.165Z,1.57
2018-08-06T14:26:43.445Z,2.00
2018-08-06T14:29:11.741Z,1.87
2018-08-06T14:31:40.141Z,1.83
2018-08-06T14:34:08.447Z,1.43
2018-08-06T14:36:36.677Z,2.23
2018-08-06T14:39:08.591Z,1.43
2018-08-06T14:41:36.903Z,2.00
2018-08-06T14:44:06.221Z,1.40
2018-08-06T14:46:34.957Z,2.03
2018-08-06T14:49:03.352Z,1.63
2018-08-06T14:51:31.636Z,2.20
2018-08-06T14:53:59.893Z,1.80
2018-08-06T14:56:28.184Z,2.00
2018-08-06T14:58:56.445Z,1.50
2018-08-06T15:01:24.761Z,1.67
2018-08-06T15:03:53.089Z,1.57
2018-08-06T15:06:21.905Z,1.50
2018-08-06T15:08:50.369Z,2.10
2018-08-06T15:11:18.718Z,1.83
2018-08-06T15:13:47.333Z,1.60
2018-08-06T15:16:15.649Z,1.40
2018-08-06T15:18:43.915Z,1.20
2018-08-06T15:21:12.238Z,1.47
2018-08-06T15:23:40.519Z,1.50
2018-08-06T15:26:08.837Z,1.47
2018-08-06T15:28:37.113Z,1.77
2018-08-06T15:31:05.429Z,1.97
2018-08-06T15:33:33.797Z,1.53
2018-08-06T15:36:02.215Z,1.73
2018-08-06T15:38:30.481Z,1.43
2018-08-06T15:40:58.825Z,1.50
2018-08-06T15:43:27.109Z,1.27
2018-08-06T15:45:55.370Z,1.87
2018-08-06T15:48:23.666Z,2.43
2018-08-06T15:50:51.969Z,1.30
2018-08-06T15:53:21.288Z,2.00
2018-08-06T15:55:49.680Z,1.90
2018-08-06T15:58:17.978Z,1.90
2018-08-06T16:00:46.314Z,1.77
2018-08-06T16:03:14.593Z,1.57
2018-08-06T16:05:42.880Z,1.67
2018-08-06T16:08:11.193Z,2.10
2018-08-06T16:10:39.466Z,1.80
2018-08-06T16:13:07.765Z,1.73
2018-08-06T16:15:36.015Z,2.20
2018-08-06T16:18:04.373Z,1.67
2018-08-06T16:20:32.560Z,2.10
2018-08-06T16:23:00.880Z,1.93
2018-08-06T16:25:29.204Z,2.00
2018-08-06T16:27:58.605Z,1.70
2018-08-06T16:30:27.256Z,1.90
2018-08-06T16:32:55.617Z,1.75
2018-08-06T16:35:24.623Z,2.40
2018-08-06T16:37:54.770Z,1.70
2018-08-06T16:40:23.034Z,2.10
2018-08-06T16:42:51.859Z,1.93
2018-08-06T16:45:20.583Z,1.80
2018-08-06T16:47:48.924Z,2.20
2018-08-06T16:50:17.997Z,2.27
2018-08-06T16:52:46.555Z,2.30
2018-08-06T16:55:14.899Z,2.00
2018-08-06T16:57:43.328Z,2.27
2018-08-06T17:00:15.472Z,2.33
2018-08-06T17:02:44.065Z,1.70
2018-08-06T17:05:13.393Z,1.80
2018-08-06T17:07:42.549Z,2.10
2018-08-06T17:10:14.278Z,2.60
2018-08-06T17:12:43.813Z,2.20
2018-08-06T17:15:13.420Z,2.27
2018-08-06T17:17:42.117Z,2.57
2018-08-06T17:20:15.145Z,2.17
2018-08-06T17:22:44.603Z,2.30
2018-08-06T17:25:13.323Z,2.33
2018-08-06T17:27:41.988Z,2.30
2018-08-06T17:30:11.161Z,2.47
2018-08-06T17:32:39.757Z,2.00
2018-08-06T17:35:09.725Z,2.87
2018-08-06T17:37:38.149Z,2.50
2018-08-06T17:40:15.365Z,2.60
2018-08-06T17:42:44.880Z,2.20
2018-08-06T17:45:16.461Z,2.30
2018-08-06T17:47:44.780Z,2.23
2018-08-06T17:50:15.245Z,2.20
2018-08-06T17:52:45.158Z,2.63
2018-08-06T17:55:15.058Z,2.00
2018-08-06T17:57:43.374Z,2.10
2018-08-06T18:00:12.177Z,2.50
2018-08-06T18:02:40.493Z,1.73
2018-08-06T18:05:10.604Z,2.70
2018-08-06T18:07:39.258Z,2.20
2018-08-06T18:10:09.541Z,3.67
2018-08-06T18:12:37.859Z,2.53
2018-08-06T18:15:06.750Z,2.47
2018-08-06T18:17:35.376Z,2.77
2018-08-06T18:20:03.951Z,3.13
2018-08-06T18:22:32.314Z,2.83
2018-08-06T18:25:00.607Z,2.87
2018-08-06T18:27:28.989Z,3.10
2018-08-06T18:29:57.270Z,2.30
2018-08-06T18:32:25.689Z,3.00
2018-08-06T18:34:53.925Z,2.87
2018-08-06T18:37:22.189Z,2.70
2018-08-06T18:39:50.636Z,3.20
2018-08-06T18:42:18.930Z,2.90
2018-08-06T18:44:47.203Z,3.27
2018-08-06T18:47:15.477Z,3.10
2018-08-06T18:49:43.769Z,4.77
2018-08-06T18:52:12.046Z,3.13
2018-08-06T18:54:40.380Z,2.20
2018-08-06T18:57:08.664Z,3.07
2018-08-06T18:59:36.949Z,2.57
2018-08-06T19:02:05.445Z,4.60
2018-08-06T19:04:33.813Z,3.57
2018-08-06T19:07:02.131Z,3.60
2018-08-06T19:09:30.485Z,3.00
2018-08-06T19:12:04.985Z,2.47
2018-08-06T19:14:33.300Z,3.50
2018-08-06T19:17:01.637Z,2.40
2018-08-06T19:19:30.269Z,3.03
2018-08-06T19:21:58.932Z,2.80
2018-08-06T19:24:32.556Z,3.00
2018-08-06T19:27:00.858Z,3.63
2018-08-06T19:29:29.185Z,2.87
2018-08-06T19:31:57.525Z,2.70
2018-08-06T19:34:25.820Z,3.03
2018-08-06T19:37:00.440Z,2.77
2018-08-06T19:39:28.721Z,3.33
2018-08-06T19:41:57.033Z,2.70
2018-08-06T19:44:26.290Z,3.30
2018-08-06T19:46:54.598Z,2.60
2018-08-06T19:49:28.105Z,2.97
2018-08-06T19:51:56.456Z,3.00
2018-08-06T19:54:24.731Z,2.73
2018-08-06T19:56:54.084Z,3.67
2018-08-06T19:59:22.339Z,4.23
2018-08-06T20:01:50.725Z,2.47
2018-08-06T20:04:18.999Z,3.00
2018-08-06T20:06:47.280Z,3.00
2018-08-06T20:09:15.554Z,3.30
2018-08-06T20:11:43.841Z,2.83
2018-08-06T20:14:12.174Z,2.60
2018-08-06T20:16:40.438Z,3.30
2018-08-06T20:19:09.545Z,3.53
2018-08-06T20:21:37.801Z,3.30
2018-08-06T20:24:06.847Z,3.17
2018-08-06T20:26:36.189Z,3.60
2018-08-06T20:29:04.479Z,2.73
2018-08-06T20:31:33.944Z,3.13
2018-08-06T20:34:02.375Z,2.90
2018-08-06T20:36:30.630Z,2.60
2018-08-06T20:39:00.000Z,2.83
2018-08-06T20:41:28.294Z,2.70
2018-08-06T20:43:56.570Z,3.43
2018-08-06T20:46:24.833Z,2.80
2018-08-06T20:48:53.104Z,2.40
2018-08-06T20:51:21.364Z,2.33
2018-08-06T20:53:49.696Z,2.87
2018-08-06T20:56:17.997Z,2.90
2018-08-06T20:58:46.411Z,3.57
2018-08-06T21:01:14.674Z,3.50
2018-08-06T21:03:42.996Z,3.07
2018-08-06T21:06:11.409Z,3.70
2018-08-06T21:08:39.732Z,4.70
2018-08-06T21:11:08.137Z,3.20
2018-08-06T21:13:36.413Z,3.47
2018-08-06T21:16:04.699Z,2.00
2018-08-06T21:18:33.014Z,3.20
2018-08-06T21:21:01.421Z,2.80
2018-08-06T21:23:29.712Z,3.07
2018-08-06T21:25:58.049Z,2.63
2018-08-06T21:28:26.368Z,2.40
2018-08-06T21:30:54.660Z,3.23
2018-08-06T21:33:23.029Z,3.70
2018-08-06T21:35:51.422Z,3.80
2018-08-06T21:38:19.789Z,3.77
2018-08-06T21:40:48.125Z,3.00
2018-08-06T21:43:16.449Z,3.43
2018-08-06T21:45:44.854Z,5.07
2018-08-06T21:48:13.080Z,4.83
2018-08-06T21:50:41.473Z,4.00
2018-08-06T21:53:10.654Z,3.03
2018-08-06T21:55:39.150Z,3.40
2018-08-06T21:58:07.443Z,4.37
2018-08-06T22:00:40.227Z,3.60
2018-08-06T22:03:10.411Z,3.20
2018-08-06T22:05:38.711Z,4.23
2018-08-06T22:08:07.053Z,4.00
2018-08-06T22:10:35.361Z,3.43
2018-08-06T22:13:03.790Z,3.57
2018-08-06T22:15:32.085Z,3.70
2018-08-06T22:18:00.433Z,3.60
2018-08-06T22:20:28.732Z,2.93
2018-08-06T22:22:57.041Z,3.50
2018-08-06T22:25:25.645Z,3.10
2018-08-06T22:27:54.092Z,3.80
2018-08-06T22:30:27.877Z,2.20
2018-08-06T22:32:57.303Z,3.20
2018-08-06T22:35:26.682Z,3.13
2018-08-06T22:37:54.989Z,3.13
2018-08-06T22:40:23.265Z,3.13
2018-08-06T22:42:51.669Z,3.77
2018-08-06T22:45:19.929Z,3.23
2018-08-06T22:47:53.689Z,4.37
2018-08-06T22:50:21.936Z,4.30
2018-08-06T22:52:51.300Z,4.63
2018-08-06T22:55:19.613Z,3.90
2018-08-06T22:57:48.945Z,4.00
2018-08-06T23:00:17.548Z,4.33
2018-08-06T23:02:46.092Z,3.53
2018-08-06T23:05:16.067Z,3.27
2018-08-06T23:07:44.330Z,2.80
2018-08-06T23:10:18.281Z,3.00
2018-08-06T23:12:47.594Z,2.83
2018-08-06T23:15:16.874Z,3.13
2018-08-06T23:17:45.585Z,3.50
2018-08-06T23:20:13.882Z,3.40
2018-08-06T23:22:42.459Z,3.37
2018-08-06T23:25:10.802Z,3.20
2018-08-06T23:27:39.591Z,3.77
2018-08-06T23:30:10.080Z,3.07
2018-08-06T23:32:38.607Z,2.73
2018-08-06T23:35:09.606Z,3.17
2018-08-06T23:37:38.117Z,2.63
2018-08-06T23:40:07.137Z,3.10
2018-08-06T23:42:37.513Z,3.33
2018-08-06T23:45:07.769Z,3.00
2018-08-06T23:47:36.265Z,2.80
2018-08-06T23:50:06.037Z,3.10
2018-08-06T23:52:34.285Z,3.37
2018-08-06T23:55:02.597Z,2.50
2018-08-06T23:57:30.862Z,2.90
2018-08-06T23:59:59.286Z,3.10
